sensor_id;sensor_type;location;lat;lon;timestamp;temperature;humidity
11656;DHT22;5884;43.618;1.438;2023-02-28T05:47:02;0.80;99.90
11656;DHT22;5884;43.618;1.438;2023-02-28T05:49:29;0.80;99.90
11656;DHT22;5884;43.618;1.438;2023-02-28T05:51:57;0.80;99.90
11656;DHT22;5884;43.618;1.438;2023-02-28T05:54:24;0.80;99.90
11656;DHT22;5884;43.618;1.438;2023-02-28T05:56:51;0.80;99.90
11656;DHT22;5884;43.618;1.438;2023-02-28T05:59:18;0.80;99.90
11656;DHT22;5884;43.618;1.438;2023-02-28T06:01:46;0.80;99.90
11656;DHT22;5884;43.618;1.438;2023-02-28T06:04:17;0.80;99.90
11656;DHT22;5884;43.618;1.438;2023-02-28T06:06:45;0.70;99.90
11656;DHT22;5884;43.618;1.438;2023-02-28T06:09:12;0.70;99.90
11656;DHT22;5884;43.618;1.438;2023-02-28T06:11:40;0.70;99.90
11656;DHT22;5884;43.618;1.438;2023-02-28T06:14:14;0.70;99.90
11656;DHT22;5884;43.618;1.438;2023-02-28T06:16:43;0.70;99.90
11656;DHT22;5884;43.618;1.438;2023-02-28T06:19:10;0.60;99.90
11656;DHT22;5884;43.618;1.438;2023-02-28T06:21:39;0.60;99.90
11656;DHT22;5884;43.618;1.438;2023-02-28T06:24:07;0.60;99.90
11656;DHT22;5884;43.618;1.438;2023-02-28T06:26:35;0.50;99.90
11656;DHT22;5884;43.618;1.438;2023-02-28T06:29:02;0.50;99.90
11656;DHT22;5884;43.618;1.438;2023-02-28T06:31:30;0.50;99.90
11656;DHT22;5884;43.618;1.438;2023-02-28T06:33:57;0.60;99.90
11656;DHT22;5884;43.618;1.438;2023-02-28T06:36:24;0.50;99.90
11656;DHT22;5884;43.618;1.438;2023-02-28T06:38:53;0.60;99.90
11656;DHT22;5884;43.618;1.438;2023-02-28T06:41:22;0.60;99.90
11656;DHT22;5884;43.618;1.438;2023-02-28T06:43:50;0.60;99.90
11656;DHT22;5884;43.618;1.438;2023-02-28T06:46:17;0.70;99.90
11656;DHT22;5884;43.618;1.438;2023-02-28T06:48:45;0.70;99.90
11656;DHT22;5884;43.618;1.438;2023-02-28T06:51:14;0.80;99.90
11656;DHT22;5884;43.618;1.438;2023-02-28T06:53:43;0.80;99.90
11656;DHT22;5884;43.618;1.438;2023-02-28T06:56:14;0.80;99.90
11656;DHT22;5884;43.618;1.438;2023-02-28T06:58:42;0.70;99.90
11656;DHT22;5884;43.618;1.438;2023-02-28T07:01:13;0.70;99.90
11656;DHT22;5884;43.618;1.438;2023-02-28T07:03:41;0.70;99.90
11656;DHT22;5884;43.618;1.438;2023-02-28T07:06:08;0.70;99.90
11656;DHT22;5884;43.618;1.438;2023-02-28T07:08:35;0.80;99.90
11656;DHT22;5884;43.618;1.438;2023-02-28T07:11:03;0.80;99.90
11656;DHT22;5884;43.618;1.438;2023-02-28T07:13:32;0.90;99.90
11656;DHT22;5884;43.618;1.438;2023-02-28T07:16:01;1.00;99.90
11656;DHT22;5884;43.618;1.438;2023-02-28T07:18:30;1.00;99.90
11656;DHT22;5884;43.618;1.438;2023-02-28T07:20:58;1.00;99.90
11656;DHT22;5884;43.618;1.438;2023-02-28T07:23:27;1.00;99.90
11656;DHT22;5884;43.618;1.438;2023-02-28T07:25:55;1.00;99.90
11656;DHT22;5884;43.618;1.438;2023-02-28T07:28:22;1.00;99.90
11656;DHT22;5884;43.618;1.438;2023-02-28T07:30:51;1.10;99.90
11656;DHT22;5884;43.618;1.438;2023-02-28T07:33:18;1.10;99.90
11656;DHT22;5884;43.618;1.438;2023-02-28T07:35:46;1.10;99.90
11656;DHT22;5884;43.618;1.438;2023-02-28T07:38:13;1.10;99.90
11656;DHT22;5884;43.618;1.438;2023-02-28T07:40:40;1.30;99.90
11656;DHT22;5884;43.618;1.438;2023-02-28T07:43:07;1.30;99.90
11656;DHT22;5884;43.618;1.438;2023-02-28T07:45:35;1.40;99.90
11656;DHT22;5884;43.618;1.438;2023-02-28T07:48:04;1.60;99.90
11656;DHT22;5884;43.618;1.438;2023-02-28T07:50:31;1.80;99.90
11656;DHT22;5884;43.618;1.438;2023-02-28T07:53:00;1.80;99.90
11656;DHT22;5884;43.618;1.438;2023-02-28T07:55:27;1.80;99.90
11656;DHT22;5884;43.618;1.438;2023-02-28T07:57:54;1.80;99.90
11656;DHT22;5884;43.618;1.438;2023-02-28T08:00:23;1.80;99.90
11656;DHT22;5884;43.618;1.438;2023-02-28T08:02:51;1.90;99.90
11656;DHT22;5884;43.618;1.438;2023-02-28T08:05:19;2.00;99.90
11656;DHT22;5884;43.618;1.438;2023-02-28T08:07:48;2.10;99.90
11656;DHT22;5884;43.618;1.438;2023-02-28T08:10:16;2.20;99.90
11656;DHT22;5884;43.618;1.438;2023-02-28T08:12:43;2.30;99.90
11656;DHT22;5884;43.618;1.438;2023-02-28T08:15:11;2.50;99.90
11656;DHT22;5884;43.618;1.438;2023-02-28T08:17:38;2.60;99.90
11656;DHT22;5884;43.618;1.438;2023-02-28T08:20:06;2.60;99.90
11656;DHT22;5884;43.618;1.438;2023-02-28T08:22:37;2.60;99.90
11656;DHT22;5884;43.618;1.438;2023-02-28T08:25:05;2.60;99.90
11656;DHT22;5884;43.618;1.438;2023-02-28T08:27:33;2.80;99.90
11656;DHT22;5884;43.618;1.438;2023-02-28T08:30:00;3.20;99.90
11656;DHT22;5884;43.618;1.438;2023-02-28T08:32:28;3.50;99.90
11656;DHT22;5884;43.618;1.438;2023-02-28T08:34:56;3.50;99.90
11656;DHT22;5884;43.618;1.438;2023-02-28T08:37:23;3.60;99.90
11656;DHT22;5884;43.618;1.438;2023-02-28T08:39:52;3.80;99.90
11656;DHT22;5884;43.618;1.438;2023-02-28T08:42:19;3.80;99.90
11656;DHT22;5884;43.618;1.438;2023-02-28T08:44:46;3.70;99.90
11656;DHT22;5884;43.618;1.438;2023-02-28T08:47:14;3.60;99.90
11656;DHT22;5884;43.618;1.438;2023-02-28T08:49:41;3.60;99.90
11656;DHT22;5884;43.618;1.438;2023-02-28T08:52:08;3.60;99.90
11656;DHT22;5884;43.618;1.438;2023-02-28T08:54:35;3.80;99.90
11656;DHT22;5884;43.618;1.438;2023-02-28T08:57:04;3.70;99.90
11656;DHT22;5884;43.618;1.438;2023-02-28T08:59:31;3.80;99.90
11656;DHT22;5884;43.618;1.438;2023-02-28T09:01:59;3.70;99.90
11656;DHT22;5884;43.618;1.438;2023-02-28T09:04:26;3.70;99.90
11656;DHT22;5884;43.618;1.438;2023-02-28T09:06:56;3.70;99.90
11656;DHT22;5884;43.618;1.438;2023-02-28T09:09:23;3.70;99.90
11656;DHT22;5884;43.618;1.438;2023-02-28T09:11:50;3.50;99.90
11656;DHT22;5884;43.618;1.438;2023-02-28T09:14:19;3.40;99.90
11656;DHT22;5884;43.618;1.438;2023-02-28T09:16:46;3.30;99.90
11656;DHT22;5884;43.618;1.438;2023-02-28T09:19:14;3.30;99.90
11656;DHT22;5884;43.618;1.438;2023-02-28T09:21:41;3.40;99.90
11656;DHT22;5884;43.618;1.438;2023-02-28T09:24:08;3.50;99.90
11656;DHT22;5884;43.618;1.438;2023-02-28T09:26:37;3.60;99.90
11656;DHT22;5884;43.618;1.438;2023-02-28T09:29:04;3.60;99.90
11656;DHT22;5884;43.618;1.438;2023-02-28T09:31:33;3.50;99.90
11656;DHT22;5884;43.618;1.438;2023-02-28T09:34:00;3.60;99.90
11656;DHT22;5884;43.618;1.438;2023-02-28T09:36:28;3.70;99.90
11656;DHT22;5884;43.618;1.438;2023-02-28T09:38:55;3.90;99.90
11656;DHT22;5884;43.618;1.438;2023-02-28T09:41:25;4.00;99.90
11656;DHT22;5884;43.618;1.438;2023-02-28T09:43:57;4.00;99.90
11656;DHT22;5884;43.618;1.438;2023-02-28T09:46:33;4.00;99.90
11656;DHT22;5884;43.618;1.438;2023-02-28T09:49:05;4.00;99.90
11656;DHT22;5884;43.618;1.438;2023-02-28T09:51:43;4.20;99.90
11656;DHT22;5884;43.618;1.438;2023-02-28T09:54:17;4.20;99.90
11656;DHT22;5884;43.618;1.438;2023-02-28T09:56:47;4.20;99.90
11656;DHT22;5884;43.618;1.438;2023-02-28T10:05:19;4.50;99.90
11656;DHT22;5884;43.618;1.438;2023-02-28T10:07:58;4.50;99.90
11656;DHT22;5884;43.618;1.438;2023-02-28T10:10:37;4.50;99.90
11656;DHT22;5884;43.618;1.438;2023-02-28T10:13:14;4.50;99.90
11656;DHT22;5884;43.618;1.438;2023-02-28T10:15:47;4.60;99.90
11656;DHT22;5884;43.618;1.438;2023-02-28T10:18:23;4.70;99.90
11656;DHT22;5884;43.618;1.438;2023-02-28T10:20:53;4.70;99.90
11656;DHT22;5884;43.618;1.438;2023-02-28T10:23:27;4.50;99.90
11656;DHT22;5884;43.618;1.438;2023-02-28T10:26:00;4.50;99.90
11656;DHT22;5884;43.618;1.438;2023-02-28T10:28:32;4.50;99.90
11656;DHT22;5884;43.618;1.438;2023-02-28T10:31:00;4.30;99.90
11656;DHT22;5884;43.618;1.438;2023-02-28T10:33:32;4.40;99.90
11656;DHT22;5884;43.618;1.438;2023-02-28T10:36:01;4.30;99.90
11656;DHT22;5884;43.618;1.438;2023-02-28T10:38:34;4.30;99.90
11656;DHT22;5884;43.618;1.438;2023-02-28T10:41:05;4.40;99.90
11656;DHT22;5884;43.618;1.438;2023-02-28T10:43:36;4.70;99.90
11656;DHT22;5884;43.618;1.438;2023-02-28T10:46:09;5.00;99.90
11656;DHT22;5884;43.618;1.438;2023-02-28T10:48:44;5.20;99.90
11656;DHT22;5884;43.618;1.438;2023-02-28T10:51:15;5.40;99.90
11656;DHT22;5884;43.618;1.438;2023-02-28T10:53:48;5.20;99.90
11656;DHT22;5884;43.618;1.438;2023-02-28T10:56:18;5.10;99.90
11656;DHT22;5884;43.618;1.438;2023-02-28T10:58:53;5.20;99.90
11656;DHT22;5884;43.618;1.438;2023-02-28T11:01:25;5.30;99.90
11656;DHT22;5884;43.618;1.438;2023-02-28T11:04:03;5.00;99.90
11656;DHT22;5884;43.618;1.438;2023-02-28T11:06:43;4.80;99.90
11656;DHT22;5884;43.618;1.438;2023-02-28T11:09:27;4.80;99.90
11656;DHT22;5884;43.618;1.438;2023-02-28T11:11:56;4.90;99.90
11656;DHT22;5884;43.618;1.438;2023-02-28T11:14:26;4.80;99.90
11656;DHT22;5884;43.618;1.438;2023-02-28T11:16:58;4.90;99.90
11656;DHT22;5884;43.618;1.438;2023-02-28T11:19:34;4.90;99.90
11656;DHT22;5884;43.618;1.438;2023-02-28T11:22:06;4.90;99.90
11656;DHT22;5884;43.618;1.438;2023-02-28T11:24:36;5.00;99.90
11656;DHT22;5884;43.618;1.438;2023-02-28T11:27:24;5.10;99.90
11656;DHT22;5884;43.618;1.438;2023-02-28T11:29:52;5.20;99.90
11656;DHT22;5884;43.618;1.438;2023-02-28T11:32:21;5.10;99.90
11656;DHT22;5884;43.618;1.438;2023-02-28T11:35:02;5.20;99.90
11656;DHT22;5884;43.618;1.438;2023-02-28T11:37:32;5.40;99.90
11656;DHT22;5884;43.618;1.438;2023-02-28T11:40:00;5.70;99.90
11656;DHT22;5884;43.618;1.438;2023-02-28T11:42:41;5.90;99.90
11656;DHT22;5884;43.618;1.438;2023-02-28T11:45:24;5.80;99.90
11656;DHT22;5884;43.618;1.438;2023-02-28T11:48:12;5.70;99.90
11656;DHT22;5884;43.618;1.438;2023-02-28T11:50:52;5.50;99.90
11656;DHT22;5884;43.618;1.438;2023-02-28T11:56:32;6.00;99.90
11656;DHT22;5884;43.618;1.438;2023-02-28T12:02:10;6.10;99.90
11656;DHT22;5884;43.618;1.438;2023-02-28T12:04:53;6.20;99.90
11656;DHT22;5884;43.618;1.438;2023-02-28T12:07:37;6.60;99.90
11656;DHT22;5884;43.618;1.438;2023-02-28T12:10:20;6.80;99.90
11656;DHT22;5884;43.618;1.438;2023-02-28T12:13:05;7.10;99.90
11656;DHT22;5884;43.618;1.438;2023-02-28T12:16:09;7.10;99.90
11656;DHT22;5884;43.618;1.438;2023-02-28T12:19:07;7.10;99.90
11656;DHT22;5884;43.618;1.438;2023-02-28T12:22:02;6.90;99.90
11656;DHT22;5884;43.618;1.438;2023-02-28T12:24:51;6.50;99.90
11656;DHT22;5884;43.618;1.438;2023-02-28T12:27:27;6.10;99.90
11656;DHT22;5884;43.618;1.438;2023-02-28T12:30:02;6.30;99.90
11656;DHT22;5884;43.618;1.438;2023-02-28T12:32:36;6.40;99.90
11656;DHT22;5884;43.618;1.438;2023-02-28T12:35:12;6.40;99.90
11656;DHT22;5884;43.618;1.438;2023-02-28T12:37:43;6.10;99.90
11656;DHT22;5884;43.618;1.438;2023-02-28T12:40:17;6.10;99.90
11656;DHT22;5884;43.618;1.438;2023-02-28T12:42:49;6.50;99.90
11656;DHT22;5884;43.618;1.438;2023-02-28T12:45:20;6.60;99.90
11656;DHT22;5884;43.618;1.438;2023-02-28T12:47:52;6.80;99.90
11656;DHT22;5884;43.618;1.438;2023-02-28T12:50:24;6.70;99.90
11656;DHT22;5884;43.618;1.438;2023-02-28T12:53:00;6.60;99.90
11656;DHT22;5884;43.618;1.438;2023-02-28T12:55:35;6.40;99.90
11656;DHT22;5884;43.618;1.438;2023-02-28T12:58:13;6.40;99.90
11656;DHT22;5884;43.618;1.438;2023-02-28T13:00:55;6.50;99.90
11656;DHT22;5884;43.618;1.438;2023-02-28T13:03:49;6.40;99.90
11656;DHT22;5884;43.618;1.438;2023-02-28T13:06:40;6.40;99.90
11656;DHT22;5884;43.618;1.438;2023-02-28T13:09:14;6.40;99.90
11656;DHT22;5884;43.618;1.438;2023-02-28T13:11:45;6.60;99.90
11656;DHT22;5884;43.618;1.438;2023-02-28T13:14:22;6.80;99.90
11656;DHT22;5884;43.618;1.438;2023-02-28T13:16:57;6.80;99.90
11656;DHT22;5884;43.618;1.438;2023-02-28T13:19:27;6.80;99.90
11656;DHT22;5884;43.618;1.438;2023-02-28T13:21:56;6.80;99.90
11656;DHT22;5884;43.618;1.438;2023-02-28T13:24:45;6.40;99.90
11656;DHT22;5884;43.618;1.438;2023-02-28T13:27:34;6.60;99.90
11656;DHT22;5884;43.618;1.438;2023-02-28T13:33:32;6.60;99.90
11656;DHT22;5884;43.618;1.438;2023-02-28T13:36:12;6.70;99.90
11656;DHT22;5884;43.618;1.438;2023-02-28T13:38:51;6.30;99.90
11656;DHT22;5884;43.618;1.438;2023-02-28T13:41:41;6.50;99.90
11656;DHT22;5884;43.618;1.438;2023-02-28T13:44:12;6.50;99.90
11656;DHT22;5884;43.618;1.438;2023-02-28T13:47:20;6.70;99.90
11656;DHT22;5884;43.618;1.438;2023-02-28T13:49:51;6.70;99.90
11656;DHT22;5884;43.618;1.438;2023-02-28T13:52:21;6.60;99.90
11656;DHT22;5884;43.618;1.438;2023-02-28T13:55:17;6.70;99.90
11656;DHT22;5884;43.618;1.438;2023-02-28T13:58:08;7.10;99.90
11656;DHT22;5884;43.618;1.438;2023-02-28T14:00:55;7.50;99.90
11656;DHT22;5884;43.618;1.438;2023-02-28T14:03:42;7.50;99.90
11656;DHT22;5884;43.618;1.438;2023-02-28T14:06:22;7.50;99.90
11656;DHT22;5884;43.618;1.438;2023-02-28T14:08:58;7.00;99.90
11656;DHT22;5884;43.618;1.438;2023-02-28T14:11:31;6.80;99.90
11656;DHT22;5884;43.618;1.438;2023-02-28T14:14:00;6.70;99.90
11656;DHT22;5884;43.618;1.438;2023-02-28T14:16:37;7.20;99.90
11656;DHT22;5884;43.618;1.438;2023-02-28T14:19:12;7.00;99.90
11656;DHT22;5884;43.618;1.438;2023-02-28T14:21:55;6.80;99.90
11656;DHT22;5884;43.618;1.438;2023-02-28T14:24:50;6.80;99.90
11656;DHT22;5884;43.618;1.438;2023-02-28T14:27:47;6.40;99.90
11656;DHT22;5884;43.618;1.438;2023-02-28T14:30:57;6.40;99.90
11656;DHT22;5884;43.618;1.438;2023-02-28T14:33:42;6.60;99.90
11656;DHT22;5884;43.618;1.438;2023-02-28T14:36:20;6.40;99.90
11656;DHT22;5884;43.618;1.438;2023-02-28T14:38:51;6.60;99.90
11656;DHT22;5884;43.618;1.438;2023-02-28T14:41:22;6.70;99.90
11656;DHT22;5884;43.618;1.438;2023-02-28T14:43:54;6.50;99.90
11656;DHT22;5884;43.618;1.438;2023-02-28T14:46:25;6.50;99.90
11656;DHT22;5884;43.618;1.438;2023-02-28T14:48:57;6.60;99.90
11656;DHT22;5884;43.618;1.438;2023-02-28T14:51:24;6.50;99.90
11656;DHT22;5884;43.618;1.438;2023-02-28T14:53:58;6.50;99.90
11656;DHT22;5884;43.618;1.438;2023-02-28T14:56:29;6.50;99.90
11656;DHT22;5884;43.618;1.438;2023-02-28T14:59:02;6.40;99.90
11656;DHT22;5884;43.618;1.438;2023-02-28T15:01:29;6.50;99.90
11656;DHT22;5884;43.618;1.438;2023-02-28T15:04:01;6.60;99.90
11656;DHT22;5884;43.618;1.438;2023-02-28T15:06:29;6.30;99.90
11656;DHT22;5884;43.618;1.438;2023-02-28T15:09:09;6.20;99.90
11656;DHT22;5884;43.618;1.438;2023-02-28T15:11:38;6.20;99.90
11656;DHT22;5884;43.618;1.438;2023-02-28T15:14:06;6.20;99.90
11656;DHT22;5884;43.618;1.438;2023-02-28T15:16:41;6.30;99.90
11656;DHT22;5884;43.618;1.438;2023-02-28T15:19:17;6.20;99.90
11656;DHT22;5884;43.618;1.438;2023-02-28T15:21:50;6.30;99.90
11656;DHT22;5884;43.618;1.438;2023-02-28T15:24:21;6.20;99.90
11656;DHT22;5884;43.618;1.438;2023-02-28T15:26:54;6.00;99.90
11656;DHT22;5884;43.618;1.438;2023-02-28T15:29:25;5.90;99.90
11656;DHT22;5884;43.618;1.438;2023-02-28T15:31:56;5.90;99.90
11656;DHT22;5884;43.618;1.438;2023-02-28T15:34:35;5.90;99.90
11656;DHT22;5884;43.618;1.438;2023-02-28T15:39:55;6.10;99.90
11656;DHT22;5884;43.618;1.438;2023-02-28T15:42:28;6.10;99.90
11656;DHT22;5884;43.618;1.438;2023-02-28T15:44:57;6.10;99.90
11656;DHT22;5884;43.618;1.438;2023-02-28T15:47:26;6.10;99.90
11656;DHT22;5884;43.618;1.438;2023-02-28T15:50:09;5.90;99.90
11656;DHT22;5884;43.618;1.438;2023-02-28T15:52:40;5.80;99.90
11656;DHT22;5884;43.618;1.438;2023-02-28T15:55:09;5.70;99.90
11656;DHT22;5884;43.618;1.438;2023-02-28T15:57:39;5.70;99.90
11656;DHT22;5884;43.618;1.438;2023-02-28T16:00:11;5.70;99.90
11656;DHT22;5884;43.618;1.438;2023-02-28T16:02:41;5.60;99.90
11656;DHT22;5884;43.618;1.438;2023-02-28T16:05:21;5.60;99.90
11656;DHT22;5884;43.618;1.438;2023-02-28T16:07:54;5.50;99.90
11656;DHT22;5884;43.618;1.438;2023-02-28T16:10:24;5.50;99.90
11656;DHT22;5884;43.618;1.438;2023-02-28T16:12:53;5.50;99.90
11656;DHT22;5884;43.618;1.438;2023-02-28T16:15:23;5.50;99.90
11656;DHT22;5884;43.618;1.438;2023-02-28T16:17:52;5.40;99.90
11656;DHT22;5884;43.618;1.438;2023-02-28T16:20:23;5.30;99.90
11656;DHT22;5884;43.618;1.438;2023-02-28T16:22:52;5.30;99.90
11656;DHT22;5884;43.618;1.438;2023-02-28T16:25:22;5.40;99.90
11656;DHT22;5884;43.618;1.438;2023-02-28T16:27:53;5.30;99.90
11656;DHT22;5884;43.618;1.438;2023-02-28T16:30:24;5.20;99.90
11656;DHT22;5884;43.618;1.438;2023-02-28T16:32:54;5.20;99.90
11656;DHT22;5884;43.618;1.438;2023-02-28T16:35:23;5.20;99.90
11656;DHT22;5884;43.618;1.438;2023-02-28T16:37:51;5.20;99.90
11656;DHT22;5884;43.618;1.438;2023-02-28T16:40:21;5.10;99.90
11656;DHT22;5884;43.618;1.438;2023-02-28T16:42:52;5.10;99.90
11656;DHT22;5884;43.618;1.438;2023-02-28T16:45:23;5.10;99.90
11656;DHT22;5884;43.618;1.438;2023-02-28T16:47:51;5.10;99.90
11656;DHT22;5884;43.618;1.438;2023-02-28T16:50:20;5.10;99.90
11656;DHT22;5884;43.618;1.438;2023-02-28T16:52:50;5.00;99.90
11656;DHT22;5884;43.618;1.438;2023-02-28T16:55:20;5.10;99.90
11656;DHT22;5884;43.618;1.438;2023-02-28T16:57:51;5.00;99.90
11656;DHT22;5884;43.618;1.438;2023-02-28T17:00:20;4.90;99.90
11656;DHT22;5884;43.618;1.438;2023-02-28T17:02:48;4.90;99.90
11656;DHT22;5884;43.618;1.438;2023-02-28T17:05:16;4.90;99.90
11656;DHT22;5884;43.618;1.438;2023-02-28T17:07:46;4.90;99.90
11656;DHT22;5884;43.618;1.438;2023-02-28T17:10:15;4.80;99.90
11656;DHT22;5884;43.618;1.438;2023-02-28T17:12:44;4.80;99.90
11656;DHT22;5884;43.618;1.438;2023-02-28T17:15:12;4.70;99.90
11656;DHT22;5884;43.618;1.438;2023-02-28T17:17:41;4.80;99.90
11656;DHT22;5884;43.618;1.438;2023-02-28T17:20:12;4.80;99.90
11656;DHT22;5884;43.618;1.438;2023-02-28T17:22:40;4.70;99.90
11656;DHT22;5884;43.618;1.438;2023-02-28T17:25:10;4.60;99.90
11656;DHT22;5884;43.618;1.438;2023-02-28T17:27:37;4.70;99.90
11656;DHT22;5884;43.618;1.438;2023-02-28T17:30:13;4.60;99.90
11656;DHT22;5884;43.618;1.438;2023-02-28T17:32:41;4.60;99.90
11656;DHT22;5884;43.618;1.438;2023-02-28T17:35:09;4.60;99.90
11656;DHT22;5884;43.618;1.438;2023-02-28T17:37:37;4.60;99.90
11656;DHT22;5884;43.618;1.438;2023-02-28T17:40:05;4.60;99.90
11656;DHT22;5884;43.618;1.438;2023-02-28T17:42:34;4.50;99.90
11656;DHT22;5884;43.618;1.438;2023-02-28T17:45:02;4.50;99.90
11656;DHT22;5884;43.618;1.438;2023-02-28T17:47:29;4.50;99.90
11656;DHT22;5884;43.618;1.438;2023-02-28T17:49:57;4.40;99.90
11656;DHT22;5884;43.618;1.438;2023-02-28T17:52:24;4.40;99.90
11656;DHT22;5884;43.618;1.438;2023-02-28T17:54:51;4.40;99.90
11656;DHT22;5884;43.618;1.438;2023-02-28T17:57:18;4.40;99.90
11656;DHT22;5884;43.618;1.438;2023-02-28T17:59:47;4.40;99.90
11656;DHT22;5884;43.618;1.438;2023-02-28T18:02:14;4.40;99.90
11656;DHT22;5884;43.618;1.438;2023-02-28T18:04:42;4.40;99.90
11656;DHT22;5884;43.618;1.438;2023-02-28T18:07:11;4.40;99.90
11656;DHT22;5884;43.618;1.438;2023-02-28T18:09:40;4.30;99.90
11656;DHT22;5884;43.618;1.438;2023-02-28T18:12:08;4.30;99.90
11656;DHT22;5884;43.618;1.438;2023-02-28T18:14:35;4.30;99.90
11656;DHT22;5884;43.618;1.438;2023-02-28T18:17:04;4.30;99.90
11656;DHT22;5884;43.618;1.438;2023-02-28T18:19:31;4.30;99.90
11656;DHT22;5884;43.618;1.438;2023-02-28T18:21:58;4.30;99.90
11656;DHT22;5884;43.618;1.438;2023-02-28T18:24:25;4.30;99.90
11656;DHT22;5884;43.618;1.438;2023-02-28T18:26:53;4.20;99.90
11656;DHT22;5884;43.618;1.438;2023-02-28T18:29:22;4.30;99.90
11656;DHT22;5884;43.618;1.438;2023-02-28T18:31:51;4.30;99.90
11656;DHT22;5884;43.618;1.438;2023-02-28T18:34:20;4.20;99.90
11656;DHT22;5884;43.618;1.438;2023-02-28T18:36:48;4.30;99.90
11656;DHT22;5884;43.618;1.438;2023-02-28T18:39:16;4.30;99.90
11656;DHT22;5884;43.618;1.438;2023-02-28T18:41:44;4.20;99.90
11656;DHT22;5884;43.618;1.438;2023-02-28T18:44:11;4.20;99.90
11656;DHT22;5884;43.618;1.438;2023-02-28T18:46:39;4.20;99.90
11656;DHT22;5884;43.618;1.438;2023-02-28T18:49:07;4.20;99.90
11656;DHT22;5884;43.618;1.438;2023-02-28T18:51:35;4.20;99.90
11656;DHT22;5884;43.618;1.438;2023-02-28T18:54:03;4.10;99.90
11656;DHT22;5884;43.618;1.438;2023-02-28T18:56:30;4.20;99.90
11656;DHT22;5884;43.618;1.438;2023-02-28T18:58:57;4.10;99.90
11656;DHT22;5884;43.618;1.438;2023-02-28T19:01:26;4.10;99.90
11656;DHT22;5884;43.618;1.438;2023-02-28T19:03:57;4.10;99.90
11656;DHT22;5884;43.618;1.438;2023-02-28T19:06:26;4.10;99.90
11656;DHT22;5884;43.618;1.438;2023-02-28T19:08:56;4.10;99.90
11656;DHT22;5884;43.618;1.438;2023-02-28T19:11:24;4.10;99.90
11656;DHT22;5884;43.618;1.438;2023-02-28T19:13:52;4.00;99.90
11656;DHT22;5884;43.618;1.438;2023-02-28T19:16:20;4.10;99.90
11656;DHT22;5884;43.618;1.438;2023-02-28T19:18:48;4.00;99.90
11656;DHT22;5884;43.618;1.438;2023-02-28T19:21:18;4.00;99.90
11656;DHT22;5884;43.618;1.438;2023-02-28T19:23:46;4.00;99.90
11656;DHT22;5884;43.618;1.438;2023-02-28T19:26:17;4.00;99.90
11656;DHT22;5884;43.618;1.438;2023-02-28T19:28:45;4.00;99.90
11656;DHT22;5884;43.618;1.438;2023-02-28T19:31:14;4.00;99.90
11656;DHT22;5884;43.618;1.438;2023-02-28T19:33:43;4.00;99.90
11656;DHT22;5884;43.618;1.438;2023-02-28T19:36:11;3.90;99.90
11656;DHT22;5884;43.618;1.438;2023-02-28T19:38:40;3.90;99.90
11656;DHT22;5884;43.618;1.438;2023-02-28T19:41:10;3.90;99.90
11656;DHT22;5884;43.618;1.438;2023-02-28T19:43:40;3.90;99.90
11656;DHT22;5884;43.618;1.438;2023-02-28T19:46:08;3.90;99.90
11656;DHT22;5884;43.618;1.438;2023-02-28T19:48:36;3.90;99.90
11656;DHT22;5884;43.618;1.438;2023-02-28T19:51:06;3.90;99.90
11656;DHT22;5884;43.618;1.438;2023-02-28T19:53:36;3.90;99.90
11656;DHT22;5884;43.618;1.438;2023-02-28T19:56:05;3.80;99.90
11656;DHT22;5884;43.618;1.438;2023-02-28T19:58:33;3.80;99.90
11656;DHT22;5884;43.618;1.438;2023-02-28T20:01:07;3.80;99.90
11656;DHT22;5884;43.618;1.438;2023-02-28T20:03:35;3.80;99.90
11656;DHT22;5884;43.618;1.438;2023-02-28T20:06:04;3.80;99.90
11656;DHT22;5884;43.618;1.438;2023-02-28T20:08:33;3.80;99.90
11656;DHT22;5884;43.618;1.438;2023-02-28T20:11:03;3.80;99.90
11656;DHT22;5884;43.618;1.438;2023-02-28T20:13:31;3.80;99.90
11656;DHT22;5884;43.618;1.438;2023-02-28T20:16:00;3.70;99.90
11656;DHT22;5884;43.618;1.438;2023-02-28T20:18:29;3.70;99.90
11656;DHT22;5884;43.618;1.438;2023-02-28T20:20:56;3.60;99.90
11656;DHT22;5884;43.618;1.438;2023-02-28T20:23:24;3.70;99.90
11656;DHT22;5884;43.618;1.438;2023-02-28T20:25:52;3.70;99.90
11656;DHT22;5884;43.618;1.438;2023-02-28T20:28:19;3.70;99.90
11656;DHT22;5884;43.618;1.438;2023-02-28T20:30:47;3.60;99.90
11656;DHT22;5884;43.618;1.438;2023-02-28T20:33:14;3.60;99.90
11656;DHT22;5884;43.618;1.438;2023-02-28T20:35:43;3.60;99.90
11656;DHT22;5884;43.618;1.438;2023-02-28T20:38:11;3.60;99.90
11656;DHT22;5884;43.618;1.438;2023-02-28T20:40:38;3.60;99.90
11656;DHT22;5884;43.618;1.438;2023-02-28T20:43:05;3.60;99.90
11656;DHT22;5884;43.618;1.438;2023-02-28T20:45:32;3.50;99.90
11656;DHT22;5884;43.618;1.438;2023-02-28T20:48:00;3.50;99.90
11656;DHT22;5884;43.618;1.438;2023-02-28T20:50:27;3.50;99.90
11656;DHT22;5884;43.618;1.438;2023-02-28T20:52:56;3.40;99.90
11656;DHT22;5884;43.618;1.438;2023-02-28T20:55:23;3.30;99.90
11656;DHT22;5884;43.618;1.438;2023-02-28T20:57:50;3.20;99.90
11656;DHT22;5884;43.618;1.438;2023-02-28T21:00:19;3.20;99.90
11656;DHT22;5884;43.618;1.438;2023-02-28T21:02:47;3.20;99.90
11656;DHT22;5884;43.618;1.438;2023-02-28T21:05:14;3.10;99.90
11656;DHT22;5884;43.618;1.438;2023-02-28T21:07:42;3.10;99.90
11656;DHT22;5884;43.618;1.438;2023-02-28T21:10:11;3.00;99.90
11656;DHT22;5884;43.618;1.438;2023-02-28T21:12:38;3.00;99.90
11656;DHT22;5884;43.618;1.438;2023-02-28T21:15:06;3.00;99.90
11656;DHT22;5884;43.618;1.438;2023-02-28T21:17:34;2.90;99.90
11656;DHT22;5884;43.618;1.438;2023-02-28T21:20:02;2.90;99.90
11656;DHT22;5884;43.618;1.438;2023-02-28T21:22:30;2.90;99.90
11656;DHT22;5884;43.618;1.438;2023-02-28T21:24:57;2.90;99.90
11656;DHT22;5884;43.618;1.438;2023-02-28T21:27:26;2.90;99.90
11656;DHT22;5884;43.618;1.438;2023-02-28T21:29:53;2.90;99.90
11656;DHT22;5884;43.618;1.438;2023-02-28T21:32:20;2.90;99.90
11656;DHT22;5884;43.618;1.438;2023-02-28T21:34:47;3.00;99.90
11656;DHT22;5884;43.618;1.438;2023-02-28T21:37:14;3.00;99.90
11656;DHT22;5884;43.618;1.438;2023-02-28T21:39:42;2.90;99.90
11656;DHT22;5884;43.618;1.438;2023-02-28T21:42:10;2.90;99.90
11656;DHT22;5884;43.618;1.438;2023-02-28T21:44:39;2.80;99.90
11656;DHT22;5884;43.618;1.438;2023-02-28T21:47:06;2.80;99.90
11656;DHT22;5884;43.618;1.438;2023-02-28T21:49:34;2.80;99.90
11656;DHT22;5884;43.618;1.438;2023-02-28T21:52:02;2.70;99.90
11656;DHT22;5884;43.618;1.438;2023-02-28T21:54:29;2.60;99.90
11656;DHT22;5884;43.618;1.438;2023-02-28T21:56:57;2.60;99.90
11656;DHT22;5884;43.618;1.438;2023-02-28T21:59:24;2.50;99.90
